PWSweather.com
Personal Weather Stations
Station Observations
URBANDALE
Westwind Acres And Meredith Hills, Urbandale, IA 50322

Westwind Acres And Meredith HillsUrbandale, IA 50322

Lat: 41.643, Lon: -93.709

Elevation: 928

Station Type:

http://urbandaleweather.com

High Low Average
Temperature 58.8°F14.9°C 32.7°F0.4°C 46.1°F7.8°C
Dew Point 35.6°F2.0°C 23.9°F-4.5°C 28.3°F-2.1°C
Winds 6.0 mph 9.7 kmh Calm Calm 3.0 mph SSW4.8 kmh SSW
Wind Gusts 15.0 mph24.1 kmh -- 7.0 mph11.3 kmh
Humidity 76% 29% 52%
Pressure 30.25 in1024.4 mb 30.02 in1016.6 mb -
Precipitation 0.00 in0.0 mm - -
Hour Temp Dew Point Humidity Winds Wind Gusts Pressure Precip Precip Rate Daily Precip Total
12:03 AM 36.9°F2.7°C 25.0°F-3.9°C 62% 2.0 mph S3.2 kmh S 6.0 mph9.7 kmh 30.25 in1024.4 mb 0.00 in0.0 mm 0.00 in0.0 mm 0.00 in0.0 mm
12:08 AM 36.7°F2.6°C 25.3°F-3.7°C 63% 2.0 mph S3.2 kmh S 4.9 mph7.9 kmh 30.25 in1024.4 mb 0.00 in0.0 mm 0.00 in0.0 mm 0.00 in0.0 mm
12:13 AM 36.7°F2.6°C 25.3°F-3.7°C 63% 2.0 mph S3.2 kmh S 4.9 mph7.9 kmh 30.25 in1024.4 mb 0.00 in0.0 mm 0.00 in0.0 mm 0.00 in0.0 mm
12:18 AM 36.7°F2.6°C 25.3°F-3.7°C 63% 2.0 mph SSW3.2 kmh SSW 8.1 mph13.0 kmh 30.25 in1024.4 mb 0.00 in0.0 mm 0.00 in0.0 mm 0.00 in0.0 mm
12:23 AM 36.7°F2.6°C 25.3°F-3.7°C 63% 2.0 mph S3.2 kmh S 4.0 mph6.4 kmh 30.25 in1024.4 mb 0.00 in0.0 mm 0.00 in0.0 mm 0.00 in0.0 mm
12:28 AM 36.7°F2.6°C 25.3°F-3.7°C 63% 2.0 mph SSE3.2 kmh SSE 7.0 mph11.3 kmh 30.25 in1024.4 mb 0.00 in0.0 mm 0.00 in0.0 mm 0.00 in0.0 mm
12:33 AM 36.7°F2.6°C 25.0°F-3.9°C 62% 2.9 mph S4.7 kmh S 8.1 mph13.0 kmh 30.25 in1024.4 mb 0.00 in0.0 mm 0.00 in0.0 mm 0.00 in0.0 mm
12:38 AM 36.7°F2.6°C 25.0°F-3.9°C 62% 4.0 mph S6.4 kmh S 6.0 mph9.7 kmh 30.24 in1024.0 mb 0.00 in0.0 mm 0.00 in0.0 mm 0.00 in0.0 mm
12:43 AM 36.7°F2.6°C 25.0°F-3.9°C 62% 2.9 mph SSE4.7 kmh SSE 6.9 mph11.1 kmh 30.25 in1024.4 mb 0.00 in0.0 mm 0.00 in0.0 mm 0.00 in0.0 mm
12:48 AM 36.7°F2.6°C 25.0°F-3.9°C 62% 2.9 mph SSW4.7 kmh SSW 6.0 mph9.7 kmh 30.24 in1024.0 mb 0.00 in0.0 mm 0.00 in0.0 mm 0.00 in0.0 mm
12:53 AM 36.5°F2.5°C 24.8°F-4.0°C 62% 2.9 mph SSW4.7 kmh SSW 6.9 mph11.1 kmh 30.24 in1024.0 mb 0.00 in0.0 mm 0.00 in0.0 mm 0.00 in0.0 mm
12:58 AM 36.5°F2.5°C 24.8°F-4.0°C 62% 2.9 mph SSW4.7 kmh SSW 8.1 mph13.0 kmh 30.24 in1024.0 mb 0.00 in0.0 mm 0.00 in0.0 mm 0.00 in0.0 mm
01:03 AM 36.5°F2.5°C 24.3°F-4.3°C 61% 4.0 mph S6.4 kmh S 9.0 mph14.5 kmh 30.24 in1024.0 mb 0.00 in0.0 mm 0.00 in0.0 mm 0.00 in0.0 mm
01:08 AM 36.3°F2.4°C 24.6°F-4.1°C 62% 4.0 mph SSE6.4 kmh SSE 6.0 mph9.7 kmh 30.24 in1024.0 mb 0.00 in0.0 mm 0.00 in0.0 mm 0.00 in0.0 mm
01:13 AM 36.1°F2.3°C 24.4°F-4.2°C 62% 4.0 mph S6.4 kmh S 9.0 mph14.5 kmh 30.24 in1024.0 mb 0.00 in0.0 mm 0.00 in0.0 mm 0.00 in0.0 mm
01:18 AM 36.1°F2.3°C 24.4°F-4.2°C 62% 2.9 mph SE4.7 kmh SE 6.0 mph9.7 kmh 30.24 in1024.0 mb 0.00 in0.0 mm 0.00 in0.0 mm 0.00 in0.0 mm
01:23 AM 36.0°F2.2°C 24.3°F-4.3°C 62% 2.9 mph S4.7 kmh S 7.0 mph11.3 kmh 30.24 in1024.0 mb 0.00 in0.0 mm 0.00 in0.0 mm 0.00 in0.0 mm
01:28 AM 35.8°F2.1°C 24.1°F-4.4°C 62% 2.9 mph SSE4.7 kmh SSE 8.1 mph13.0 kmh 30.24 in1024.0 mb 0.00 in0.0 mm 0.00 in0.0 mm 0.00 in0.0 mm
01:33 AM 35.8°F2.1°C 24.1°F-4.4°C 62% 4.0 mph S6.4 kmh S 10.1 mph16.3 kmh 30.24 in1024.0 mb 0.00 in0.0 mm 0.00 in0.0 mm 0.00 in0.0 mm
01:38 AM 35.4°F1.9°C 24.1°F-4.4°C 63% 4.0 mph S6.4 kmh S 6.9 mph11.1 kmh 30.23 in1023.7 mb 0.00 in0.0 mm 0.00 in0.0 mm 0.00 in0.0 mm
01:43 AM 35.4°F1.9°C 24.1°F-4.4°C 63% 4.0 mph SSW6.4 kmh SSW 6.9 mph11.1 kmh 30.23 in1023.7 mb 0.00 in0.0 mm 0.00 in0.0 mm 0.00 in0.0 mm
01:48 AM 35.4°F1.9°C 24.1°F-4.4°C 63% 4.0 mph SSW6.4 kmh SSW 8.1 mph13.0 kmh 30.23 in1023.7 mb 0.00 in0.0 mm 0.00 in0.0 mm 0.00 in0.0 mm
01:53 AM 35.2°F1.8°C 23.9°F-4.5°C 63% 4.0 mph SSW6.4 kmh SSW 6.0 mph9.7 kmh 30.23 in1023.7 mb 0.00 in0.0 mm 0.00 in0.0 mm 0.00 in0.0 mm
01:58 AM 35.2°F1.8°C 23.9°F-4.5°C 63% 2.9 mph SW4.7 kmh SW 6.0 mph9.7 kmh 30.23 in1023.7 mb 0.00 in0.0 mm 0.00 in0.0 mm 0.00 in0.0 mm
02:03 AM 35.1°F1.7°C 24.1°F-4.4°C 64% 2.9 mph S4.7 kmh S 6.0 mph9.7 kmh 30.23 in1023.7 mb 0.00 in0.0 mm 0.00 in0.0 mm 0.00 in0.0 mm
02:08 AM 34.9°F1.6°C 23.9°F-4.5°C 64% 2.9 mph SSW4.7 kmh SSW 7.0 mph11.3 kmh 30.23 in1023.7 mb 0.00 in0.0 mm 0.00 in0.0 mm 0.00 in0.0 mm
02:13 AM 34.9°F1.6°C 24.3°F-4.3°C 65% 2.9 mph SSW4.7 kmh SSW 4.9 mph7.9 kmh 30.23 in1023.7 mb 0.00 in0.0 mm 0.00 in0.0 mm 0.00 in0.0 mm
02:18 AM 34.7°F1.5°C 24.1°F-4.4°C 65% 2.9 mph SSW4.7 kmh SSW 6.0 mph9.7 kmh 30.23 in1023.7 mb 0.00 in0.0 mm 0.00 in0.0 mm 0.00 in0.0 mm
02:23 AM 34.7°F1.5°C 24.1°F-4.4°C 65% 2.9 mph SSW4.7 kmh SSW 8.1 mph13.0 kmh 30.22 in1023.4 mb 0.00 in0.0 mm 0.00 in0.0 mm 0.00 in0.0 mm
02:28 AM 34.5°F1.4°C 23.9°F-4.5°C 65% 2.9 mph SW4.7 kmh SW 9.0 mph14.5 kmh 30.22 in1023.4 mb 0.00 in0.0 mm 0.00 in0.0 mm 0.00 in0.0 mm
02:33 AM 34.3°F1.3°C 24.1°F-4.4°C 66% 2.9 mph S4.7 kmh S 4.9 mph7.9 kmh 30.22 in1023.4 mb 0.00 in0.0 mm 0.00 in0.0 mm 0.00 in0.0 mm
02:38 AM 34.3°F1.3°C 24.1°F-4.4°C 66% 2.0 mph SW3.2 kmh SW 6.9 mph11.1 kmh 30.22 in1023.4 mb 0.00 in0.0 mm 0.00 in0.0 mm 0.00 in0.0 mm
02:43 AM 34.3°F1.3°C 24.1°F-4.4°C 66% 2.9 mph SSW4.7 kmh SSW 8.1 mph13.0 kmh 30.21 in1023.0 mb 0.00 in0.0 mm 0.00 in0.0 mm 0.00 in0.0 mm
02:48 AM 34.3°F1.3°C 24.1°F-4.4°C 66% 4.0 mph S6.4 kmh S 6.0 mph9.7 kmh 30.21 in1023.0 mb 0.00 in0.0 mm 0.00 in0.0 mm 0.00 in0.0 mm
02:53 AM 34.2°F1.2°C 24.1°F-4.4°C 66% 4.0 mph S6.4 kmh S 6.9 mph11.1 kmh 30.21 in1023.0 mb 0.00 in0.0 mm 0.00 in0.0 mm 0.00 in0.0 mm
02:58 AM 34.2°F1.2°C 24.1°F-4.4°C 66% 2.9 mph SSW4.7 kmh SSW 9.0 mph14.5 kmh 30.21 in1023.0 mb 0.00 in0.0 mm 0.00 in0.0 mm 0.00 in0.0 mm
03:03 AM 34.2°F1.2°C 24.1°F-4.4°C 66% 2.9 mph S4.7 kmh S 4.9 mph7.9 kmh 30.21 in1023.0 mb 0.00 in0.0 mm 0.00 in0.0 mm 0.00 in0.0 mm
03:08 AM 34.0°F1.1°C 24.3°F-4.3°C 67% 2.0 mph SW3.2 kmh SW 6.0 mph9.7 kmh 30.21 in1023.0 mb 0.00 in0.0 mm 0.00 in0.0 mm 0.00 in0.0 mm
03:13 AM 34.0°F1.1°C 24.3°F-4.3°C 67% 2.9 mph SE4.7 kmh SE 4.9 mph7.9 kmh 30.21 in1023.0 mb 0.00 in0.0 mm 0.00 in0.0 mm 0.00 in0.0 mm
03:18 AM 33.8°F1.0°C 24.1°F-4.4°C 67% 2.9 mph SSW4.7 kmh SSW 8.1 mph13.0 kmh 30.21 in1023.0 mb 0.00 in0.0 mm 0.00 in0.0 mm 0.00 in0.0 mm
03:23 AM 33.8°F1.0°C 24.1°F-4.4°C 67% 4.0 mph S6.4 kmh S 9.0 mph14.5 kmh 30.21 in1023.0 mb 0.00 in0.0 mm 0.00 in0.0 mm 0.00 in0.0 mm
03:28 AM 33.6°F0.9°C 24.3°F-4.3°C 68% 4.0 mph S6.4 kmh S 6.0 mph9.7 kmh 30.20 in1022.7 mb 0.00 in0.0 mm 0.00 in0.0 mm 0.00 in0.0 mm
03:33 AM 33.6°F0.9°C 24.3°F-4.3°C 68% 2.9 mph SSW4.7 kmh SSW 9.0 mph14.5 kmh 30.20 in1022.7 mb 0.00 in0.0 mm 0.00 in0.0 mm 0.00 in0.0 mm
03:38 AM 33.4°F0.8°C 24.1°F-4.4°C 68% 2.9 mph S4.7 kmh S 4.9 mph7.9 kmh 30.20 in1022.7 mb 0.00 in0.0 mm 0.00 in0.0 mm 0.00 in0.0 mm
03:43 AM 33.4°F0.8°C 24.4°F-4.2°C 69% 2.0 mph S3.2 kmh S 8.1 mph13.0 kmh 30.20 in1022.7 mb 0.00 in0.0 mm 0.00 in0.0 mm 0.00 in0.0 mm
03:48 AM 33.4°F0.8°C 24.4°F-4.2°C 69% 2.9 mph S4.7 kmh S 11.0 mph17.7 kmh 30.20 in1022.7 mb 0.00 in0.0 mm 0.00 in0.0 mm 0.00 in0.0 mm
03:53 AM 33.3°F0.7°C 24.3°F-4.3°C 69% 4.0 mph SSE6.4 kmh SSE 6.9 mph11.1 kmh 30.20 in1022.7 mb 0.00 in0.0 mm 0.00 in0.0 mm 0.00 in0.0 mm
03:58 AM 33.3°F0.7°C 24.3°F-4.3°C 69% 2.9 mph SSW4.7 kmh SSW 6.0 mph9.7 kmh 30.20 in1022.7 mb 0.00 in0.0 mm 0.00 in0.0 mm 0.00 in0.0 mm
04:03 AM 33.1°F0.6°C 24.4°F-4.2°C 70% 2.9 mph SSW4.7 kmh SSW 4.9 mph7.9 kmh 30.20 in1022.7 mb 0.00 in0.0 mm 0.00 in0.0 mm 0.00 in0.0 mm
04:08 AM 33.1°F0.6°C 24.4°F-4.2°C 70% 2.0 mph S3.2 kmh S 6.0 mph9.7 kmh 30.19 in1022.4 mb 0.00 in0.0 mm 0.00 in0.0 mm 0.00 in0.0 mm
04:13 AM 33.1°F0.6°C 24.4°F-4.2°C 70% 2.0 mph SSW3.2 kmh SSW 6.0 mph9.7 kmh 30.20 in1022.7 mb 0.00 in0.0 mm 0.00 in0.0 mm 0.00 in0.0 mm
04:18 AM 33.1°F0.6°C 24.4°F-4.2°C 70% 2.9 mph SSW4.7 kmh SSW 4.0 mph6.4 kmh 30.20 in1022.7 mb 0.00 in0.0 mm 0.00 in0.0 mm 0.00 in0.0 mm
04:23 AM 33.1°F0.6°C 24.6°F-4.1°C 71% 2.9 mph S4.7 kmh S 7.0 mph11.3 kmh 30.20 in1022.7 mb 0.00 in0.0 mm 0.00 in0.0 mm 0.00 in0.0 mm
04:28 AM 32.9°F0.5°C 24.6°F-4.1°C 71% 2.9 mph SW4.7 kmh SW 6.9 mph11.1 kmh 30.20 in1022.7 mb 0.00 in0.0 mm 0.00 in0.0 mm 0.00 in0.0 mm
04:33 AM 32.9°F0.5°C 24.6°F-4.1°C 71% 2.9 mph SSW4.7 kmh SSW 6.9 mph11.1 kmh 30.20 in1022.7 mb 0.00 in0.0 mm 0.00 in0.0 mm 0.00 in0.0 mm
04:38 AM 32.7°F0.4°C 24.4°F-4.2°C 71% 2.9 mph S4.7 kmh S 6.9 mph11.1 kmh 30.19 in1022.4 mb 0.00 in0.0 mm 0.00 in0.0 mm 0.00 in0.0 mm
04:43 AM 32.7°F0.4°C 24.4°F-4.2°C 71% 2.9 mph SSW4.7 kmh SSW 6.0 mph9.7 kmh 30.19 in1022.4 mb 0.00 in0.0 mm 0.00 in0.0 mm 0.00 in0.0 mm
04:48 AM 32.7°F0.4°C 24.4°F-4.2°C 71% 4.0 mph S6.4 kmh S 9.0 mph14.5 kmh 30.19 in1022.4 mb 0.00 in0.0 mm 0.00 in0.0 mm 0.00 in0.0 mm
04:53 AM 32.9°F0.5°C 24.6°F-4.1°C 71% 4.0 mph SW6.4 kmh SW 8.1 mph13.0 kmh 30.19 in1022.4 mb 0.00 in0.0 mm 0.00 in0.0 mm 0.00 in0.0 mm
04:58 AM 32.9°F0.5°C 24.6°F-4.1°C 71% 2.9 mph SSW4.7 kmh SSW 6.0 mph9.7 kmh 30.20 in1022.7 mb 0.00 in0.0 mm 0.00 in0.0 mm 0.00 in0.0 mm
05:03 AM 32.7°F0.4°C 24.4°F-4.2°C 71% 2.9 mph SSW4.7 kmh SSW 6.0 mph9.7 kmh 30.20 in1022.7 mb 0.00 in0.0 mm 0.00 in0.0 mm 0.00 in0.0 mm
05:08 AM 32.7°F0.4°C 24.4°F-4.2°C 71% 2.9 mph SW4.7 kmh SW 4.9 mph7.9 kmh 30.20 in1022.7 mb 0.00 in0.0 mm 0.00 in0.0 mm 0.00 in0.0 mm
05:13 AM 32.7°F0.4°C 24.4°F-4.2°C 71% 2.9 mph SW4.7 kmh SW 7.0 mph11.3 kmh 30.20 in1022.7 mb 0.00 in0.0 mm 0.00 in0.0 mm 0.00 in0.0 mm
05:18 AM 32.9°F0.5°C 24.6°F-4.1°C 71% 2.9 mph SW4.7 kmh SW 6.9 mph11.1 kmh 30.19 in1022.4 mb 0.00 in0.0 mm 0.00 in0.0 mm 0.00 in0.0 mm
05:23 AM 32.9°F0.5°C 24.6°F-4.1°C 71% 2.9 mph SSW4.7 kmh SSW 8.1 mph13.0 kmh 30.19 in1022.4 mb 0.00 in0.0 mm 0.00 in0.0 mm 0.00 in0.0 mm
05:28 AM 32.9°F0.5°C 24.6°F-4.1°C 71% 2.9 mph S4.7 kmh S 4.9 mph7.9 kmh 30.19 in1022.4 mb 0.00 in0.0 mm 0.00 in0.0 mm 0.00 in0.0 mm
05:33 AM 32.7°F0.4°C 24.6°F-4.1°C 72% 2.0 mph SSW3.2 kmh SSW 4.0 mph6.4 kmh 30.19 in1022.4 mb 0.00 in0.0 mm 0.00 in0.0 mm 0.00 in0.0 mm
05:38 AM 32.9°F0.5°C 24.6°F-4.1°C 71% 2.0 mph SSE3.2 kmh SSE 8.1 mph13.0 kmh 30.19 in1022.4 mb 0.00 in0.0 mm 0.00 in0.0 mm 0.00 in0.0 mm
05:43 AM 33.1°F0.6°C 24.6°F-4.1°C 71% 2.9 mph SW4.7 kmh SW 8.1 mph13.0 kmh 30.19 in1022.4 mb 0.00 in0.0 mm 0.00 in0.0 mm 0.00 in0.0 mm
05:48 AM 33.1°F0.6°C 24.6°F-4.1°C 71% 2.9 mph S4.7 kmh S 8.1 mph13.0 kmh 30.19 in1022.4 mb 0.00 in0.0 mm 0.00 in0.0 mm 0.00 in0.0 mm
05:53 AM 33.1°F0.6°C 24.6°F-4.1°C 71% 4.0 mph SSW6.4 kmh SSW 9.0 mph14.5 kmh 30.19 in1022.4 mb 0.00 in0.0 mm 0.00 in0.0 mm 0.00 in0.0 mm
05:58 AM 33.3°F0.7°C 24.8°F-4.0°C 71% 4.0 mph S6.4 kmh S 8.1 mph13.0 kmh 30.20 in1022.7 mb 0.00 in0.0 mm 0.00 in0.0 mm 0.00 in0.0 mm
06:03 AM 33.3°F0.7°C 24.8°F-4.0°C 71% 4.0 mph SW6.4 kmh SW 8.1 mph13.0 kmh 30.20 in1022.7 mb 0.00 in0.0 mm 0.00 in0.0 mm 0.00 in0.0 mm
06:08 AM 33.4°F0.8°C 25.0°F-3.9°C 71% 4.0 mph SSE6.4 kmh SSE 6.0 mph9.7 kmh 30.20 in1022.7 mb 0.00 in0.0 mm 0.00 in0.0 mm 0.00 in0.0 mm
06:13 AM 33.4°F0.8°C 24.8°F-4.0°C 70% 2.9 mph SSW4.7 kmh SSW 8.1 mph13.0 kmh 30.20 in1022.7 mb 0.00 in0.0 mm 0.00 in0.0 mm 0.00 in0.0 mm
06:18 AM 33.6°F0.9°C 24.8°F-4.0°C 70% 2.9 mph S4.7 kmh S 6.0 mph9.7 kmh 30.20 in1022.7 mb 0.00 in0.0 mm 0.00 in0.0 mm 0.00 in0.0 mm
06:23 AM 34.0°F1.1°C 25.2°F-3.8°C 70% 2.9 mph S4.7 kmh S 4.9 mph7.9 kmh 30.20 in1022.7 mb 0.00 in0.0 mm 0.00 in0.0 mm 0.00 in0.0 mm
06:28 AM 34.0°F1.1°C 25.2°F-3.8°C 70% 2.9 mph S4.7 kmh S 8.1 mph13.0 kmh 30.20 in1022.7 mb 0.00 in0.0 mm 0.00 in0.0 mm 0.00 in0.0 mm
06:33 AM 34.3°F1.3°C 25.2°F-3.8°C 69% 2.9 mph S4.7 kmh S 6.0 mph9.7 kmh 30.20 in1022.7 mb 0.00 in0.0 mm 0.00 in0.0 mm 0.00 in0.0 mm
06:38 AM 34.5°F1.4°C 25.3°F-3.7°C 69% 2.9 mph S4.7 kmh S 8.1 mph13.0 kmh 30.20 in1022.7 mb 0.00 in0.0 mm 0.00 in0.0 mm 0.00 in0.0 mm
06:43 AM 34.9°F1.6°C 25.7°F-3.5°C 69% 2.9 mph S4.7 kmh S 4.9 mph7.9 kmh 30.20 in1022.7 mb 0.00 in0.0 mm 0.00 in0.0 mm 0.00 in0.0 mm
06:48 AM 35.1°F1.7°C 25.9°F-3.4°C 69% 2.9 mph SSW4.7 kmh SSW 6.0 mph9.7 kmh 30.20 in1022.7 mb 0.00 in0.0 mm 0.00 in0.0 mm 0.00 in0.0 mm
06:53 AM 35.2°F1.8°C 25.7°F-3.5°C 68% 4.0 mph S6.4 kmh S 8.1 mph13.0 kmh 30.20 in1022.7 mb 0.00 in0.0 mm 0.00 in0.0 mm 0.00 in0.0 mm
06:58 AM 35.6°F2.0°C 25.7°F-3.5°C 67% 4.9 mph SSW7.9 kmh SSW 8.1 mph13.0 kmh 30.20 in1022.7 mb 0.00 in0.0 mm 0.00 in0.0 mm 0.00 in0.0 mm
07:03 AM 36.0°F2.2°C 26.1°F-3.3°C 67% 4.0 mph SW6.4 kmh SW 12.1 mph19.5 kmh 30.20 in1022.7 mb 0.00 in0.0 mm 0.00 in0.0 mm 0.00 in0.0 mm
07:08 AM 36.1°F2.3°C 26.2°F-3.2°C 67% 2.9 mph S4.7 kmh S 6.0 mph9.7 kmh 30.20 in1022.7 mb 0.00 in0.0 mm 0.00 in0.0 mm 0.00 in0.0 mm
07:13 AM 36.5°F2.5°C 26.2°F-3.2°C 66% 2.9 mph SSW4.7 kmh SSW 7.0 mph11.3 kmh 30.20 in1022.7 mb 0.00 in0.0 mm 0.00 in0.0 mm 0.00 in0.0 mm
07:18 AM 37.0°F2.8°C 26.8°F-2.9°C 66% 2.9 mph WSW4.7 kmh WSW 6.0 mph9.7 kmh 30.20 in1022.7 mb 0.00 in0.0 mm 0.00 in0.0 mm 0.00 in0.0 mm
07:23 AM 37.4°F3.0°C 26.8°F-2.9°C 65% 2.9 mph SW4.7 kmh SW 7.0 mph11.3 kmh 30.20 in1022.7 mb 0.00 in0.0 mm 0.00 in0.0 mm 0.00 in0.0 mm
07:28 AM 37.8°F3.2°C 26.6°F-3.0°C 64% 2.9 mph SW4.7 kmh SW 4.9 mph7.9 kmh 30.20 in1022.7 mb 0.00 in0.0 mm 0.00 in0.0 mm 0.00 in0.0 mm
07:33 AM 38.1°F3.4°C 27.0°F-2.8°C 64% 2.9 mph SSW4.7 kmh SSW 4.9 mph7.9 kmh 30.20 in1022.7 mb 0.00 in0.0 mm 0.00 in0.0 mm 0.00 in0.0 mm
07:38 AM 38.3°F3.5°C 26.8°F-2.9°C 63% 2.9 mph SSW4.7 kmh SSW 6.9 mph11.1 kmh 30.20 in1022.7 mb 0.00 in0.0 mm 0.00 in0.0 mm 0.00 in0.0 mm
07:43 AM 38.5°F3.6°C 27.0°F-2.8°C 63% 2.9 mph SW4.7 kmh SW 8.1 mph13.0 kmh 30.19 in1022.4 mb 0.00 in0.0 mm 0.00 in0.0 mm 0.00 in0.0 mm
07:48 AM 38.7°F3.7°C 27.1°F-2.7°C 63% 2.9 mph SW4.7 kmh SW 6.0 mph9.7 kmh 30.19 in1022.4 mb 0.00 in0.0 mm 0.00 in0.0 mm 0.00 in0.0 mm
07:53 AM 39.0°F3.9°C 27.5°F-2.5°C 63% 2.0 mph SW3.2 kmh SW 9.0 mph14.5 kmh 30.19 in1022.4 mb 0.00 in0.0 mm 0.00 in0.0 mm 0.00 in0.0 mm
07:58 AM 39.4°F4.1°C 27.5°F-2.5°C 62% 2.9 mph S4.7 kmh S 6.9 mph11.1 kmh 30.19 in1022.4 mb 0.00 in0.0 mm 0.00 in0.0 mm 0.00 in0.0 mm
08:03 AM 39.7°F4.3°C 27.3°F-2.6°C 61% 2.9 mph S4.7 kmh S 9.0 mph14.5 kmh 30.19 in1022.4 mb 0.00 in0.0 mm 0.00 in0.0 mm 0.00 in0.0 mm
08:08 AM 40.1°F4.5°C 28.0°F-2.2°C 62% 2.9 mph WSW4.7 kmh WSW 6.0 mph9.7 kmh 30.19 in1022.4 mb 0.00 in0.0 mm 0.00 in0.0 mm 0.00 in0.0 mm
08:13 AM 40.5°F4.7°C 27.7°F-2.4°C 60% 2.9 mph SW4.7 kmh SW 4.9 mph7.9 kmh 30.18 in1022.0 mb 0.00 in0.0 mm 0.00 in0.0 mm 0.00 in0.0 mm
08:18 AM 40.8°F4.9°C 28.0°F-2.2°C 60% 2.9 mph SSW4.7 kmh SSW 8.1 mph13.0 kmh 30.18 in1022.0 mb 0.00 in0.0 mm 0.00 in0.0 mm 0.00 in0.0 mm
08:23 AM 41.5°F5.3°C 27.9°F-2.3°C 58% 2.9 mph SSW4.7 kmh SSW 4.9 mph7.9 kmh 30.18 in1022.0 mb 0.00 in0.0 mm 0.00 in0.0 mm 0.00 in0.0 mm
08:28 AM 42.3°F5.7°C 28.9°F-1.7°C 59% 2.9 mph SW4.7 kmh SW 4.9 mph7.9 kmh 30.18 in1022.0 mb 0.00 in0.0 mm 0.00 in0.0 mm 0.00 in0.0 mm
08:33 AM 43.0°F6.1°C 28.8°F-1.8°C 57% 2.0 mph SW3.2 kmh SW 9.0 mph14.5 kmh 30.18 in1022.0 mb 0.00 in0.0 mm 0.00 in0.0 mm 0.00 in0.0 mm
08:38 AM 43.2°F6.2°C 28.9°F-1.7°C 57% 2.0 mph SE3.2 kmh SE 4.0 mph6.4 kmh 30.18 in1022.0 mb 0.00 in0.0 mm 0.00 in0.0 mm 0.00 in0.0 mm
08:43 AM 43.7°F6.5°C 29.1°F-1.6°C 56% 2.9 mph SSW4.7 kmh SSW 4.9 mph7.9 kmh 30.18 in1022.0 mb 0.00 in0.0 mm 0.00 in0.0 mm 0.00 in0.0 mm
08:48 AM 44.2°F6.8°C 28.6°F-1.9°C 54% 2.9 mph SW4.7 kmh SW 4.9 mph7.9 kmh 30.19 in1022.4 mb 0.00 in0.0 mm 0.00 in0.0 mm 0.00 in0.0 mm
08:53 AM 44.8°F7.1°C 28.8°F-1.8°C 53% 2.9 mph SSE4.7 kmh SSE 8.1 mph13.0 kmh 30.19 in1022.4 mb 0.00 in0.0 mm 0.00 in0.0 mm 0.00 in0.0 mm
08:58 AM 45.0°F7.2°C 28.4°F-2.0°C 52% 2.9 mph SW4.7 kmh SW 6.9 mph11.1 kmh 30.18 in1022.0 mb 0.00 in0.0 mm 0.00 in0.0 mm 0.00 in0.0 mm
09:03 AM 45.1°F7.3°C 28.6°F-1.9°C 52% 2.9 mph S4.7 kmh S 9.0 mph14.5 kmh 30.18 in1022.0 mb 0.00 in0.0 mm 0.00 in0.0 mm 0.00 in0.0 mm
09:08 AM 45.9°F7.7°C 28.8°F-1.8°C 51% 4.0 mph SW6.4 kmh SW 6.0 mph9.7 kmh 30.18 in1022.0 mb 0.00 in0.0 mm 0.00 in0.0 mm 0.00 in0.0 mm
09:13 AM 46.0°F7.8°C 28.4°F-2.0°C 50% 4.0 mph SSW6.4 kmh SSW 11.0 mph17.7 kmh 30.18 in1022.0 mb 0.00 in0.0 mm 0.00 in0.0 mm 0.00 in0.0 mm
09:18 AM 46.0°F7.8°C 27.9°F-2.3°C 49% 4.0 mph SW6.4 kmh SW 10.1 mph16.3 kmh 30.18 in1022.0 mb 0.00 in0.0 mm 0.00 in0.0 mm 0.00 in0.0 mm
09:23 AM 46.2°F7.9°C 28.6°F-1.9°C 50% 4.9 mph SW7.9 kmh SW 13.0 mph20.9 kmh 30.18 in1022.0 mb 0.00 in0.0 mm 0.00 in0.0 mm 0.00 in0.0 mm
09:28 AM 46.9°F8.3°C 28.8°F-1.8°C 49% 4.0 mph S6.4 kmh S 8.1 mph13.0 kmh 30.18 in1022.0 mb 0.00 in0.0 mm 0.00 in0.0 mm 0.00 in0.0 mm
09:33 AM 47.3°F8.5°C 29.7°F-1.3°C 50% 2.9 mph WSW4.7 kmh WSW 6.0 mph9.7 kmh 30.17 in1021.7 mb 0.00 in0.0 mm 0.00 in0.0 mm 0.00 in0.0 mm
09:38 AM 47.8°F8.8°C 28.6°F-1.9°C 47% 2.9 mph SSE4.7 kmh SSE 11.0 mph17.7 kmh 30.17 in1021.7 mb 0.00 in0.0 mm 0.00 in0.0 mm 0.00 in0.0 mm
09:43 AM 48.0°F8.9°C 29.8°F-1.2°C 49% 4.0 mph SE6.4 kmh SE 8.9 mph14.3 kmh 30.17 in1021.7 mb 0.00 in0.0 mm 0.00 in0.0 mm 0.00 in0.0 mm
09:48 AM 48.4°F9.1°C 29.7°F-1.3°C 48% 4.0 mph S6.4 kmh S 10.0 mph16.1 kmh 30.17 in1021.7 mb 0.00 in0.0 mm 0.00 in0.0 mm 0.00 in0.0 mm
09:54 AM 48.6°F9.2°C 28.8°F-1.8°C 46% 4.0 mph S6.4 kmh S 11.0 mph17.7 kmh 30.17 in1021.7 mb 0.00 in0.0 mm 0.00 in0.0 mm 0.00 in0.0 mm
09:59 AM 48.4°F9.1°C 29.7°F-1.3°C 48% 4.0 mph WSW6.4 kmh WSW 8.9 mph14.3 kmh 30.17 in1021.7 mb 0.00 in0.0 mm 0.00 in0.0 mm 0.00 in0.0 mm
10:04 AM 48.7°F9.3°C 29.5°F-1.4°C 47% 4.9 mph S7.9 kmh S 11.0 mph17.7 kmh 30.16 in1021.3 mb 0.00 in0.0 mm 0.00 in0.0 mm 0.00 in0.0 mm
10:09 AM 48.9°F9.4°C 29.7°F-1.3°C 47% 4.9 mph SW7.9 kmh SW 10.1 mph16.3 kmh 30.16 in1021.3 mb 0.00 in0.0 mm 0.00 in0.0 mm 0.00 in0.0 mm
10:14 AM 48.9°F9.4°C 29.1°F-1.6°C 46% 4.9 mph WSW7.9 kmh WSW 12.1 mph19.5 kmh 30.16 in1021.3 mb 0.00 in0.0 mm 0.00 in0.0 mm 0.00 in0.0 mm
10:19 AM 49.3°F9.6°C 29.3°F-1.5°C 46% 4.9 mph SW7.9 kmh SW 12.1 mph19.5 kmh 30.16 in1021.3 mb 0.00 in0.0 mm 0.00 in0.0 mm 0.00 in0.0 mm
10:24 AM 49.6°F9.8°C 29.7°F-1.3°C 46% 4.0 mph SSW6.4 kmh SSW 6.9 mph11.1 kmh 30.16 in1021.3 mb 0.00 in0.0 mm 0.00 in0.0 mm 0.00 in0.0 mm
10:29 AM 50.2°F10.1°C 30.2°F-1.0°C 46% 4.0 mph SW6.4 kmh SW 8.1 mph13.0 kmh 30.16 in1021.3 mb 0.00 in0.0 mm 0.00 in0.0 mm 0.00 in0.0 mm
10:34 AM 50.5°F10.3°C 29.5°F-1.4°C 44% 4.0 mph SW6.4 kmh SW 9.0 mph14.5 kmh 30.16 in1021.3 mb 0.00 in0.0 mm 0.00 in0.0 mm 0.00 in0.0 mm
10:39 AM 50.7°F10.4°C 30.2°F-1.0°C 45% 4.0 mph SW6.4 kmh SW 11.0 mph17.7 kmh 30.16 in1021.3 mb 0.00 in0.0 mm 0.00 in0.0 mm 0.00 in0.0 mm
10:44 AM 51.1°F10.6°C 29.8°F-1.2°C 44% 4.9 mph WSW7.9 kmh WSW 11.0 mph17.7 kmh 30.15 in1021.0 mb 0.00 in0.0 mm 0.00 in0.0 mm 0.00 in0.0 mm
10:49 AM 51.6°F10.9°C 30.4°F-0.9°C 44% 4.9 mph SW7.9 kmh SW 8.1 mph13.0 kmh 30.15 in1021.0 mb 0.00 in0.0 mm 0.00 in0.0 mm 0.00 in0.0 mm
10:54 AM 52.2°F11.2°C 30.4°F-0.9°C 43% 4.0 mph SW6.4 kmh SW 10.1 mph16.3 kmh 30.15 in1021.0 mb 0.00 in0.0 mm 0.00 in0.0 mm 0.00 in0.0 mm
10:59 AM 52.3°F11.3°C 31.1°F-0.5°C 44% 4.0 mph SSW6.4 kmh SSW 8.9 mph14.3 kmh 30.15 in1021.0 mb 0.00 in0.0 mm 0.00 in0.0 mm 0.00 in0.0 mm
11:04 AM 52.9°F11.6°C 30.9°F-0.6°C 43% 4.0 mph SSW6.4 kmh SSW 10.1 mph16.3 kmh 30.15 in1021.0 mb 0.00 in0.0 mm 0.00 in0.0 mm 0.00 in0.0 mm
11:09 AM 53.2°F11.8°C 30.7°F-0.7°C 42% 4.0 mph WSW6.4 kmh WSW 12.1 mph19.5 kmh 30.14 in1020.7 mb 0.00 in0.0 mm 0.00 in0.0 mm 0.00 in0.0 mm
11:14 AM 53.6°F12.0°C 30.4°F-0.9°C 41% 4.0 mph SSW6.4 kmh SSW 10.1 mph16.3 kmh 30.14 in1020.7 mb 0.00 in0.0 mm 0.00 in0.0 mm 0.00 in0.0 mm
11:24 AM 54.0°F12.2°C 30.7°F-0.7°C 41% 4.0 mph SSW6.4 kmh SSW 8.9 mph14.3 kmh 30.14 in1020.7 mb 0.00 in0.0 mm 0.00 in0.0 mm 0.00 in0.0 mm
11:29 AM 53.8°F12.1°C 31.3°F-0.4°C 42% 4.0 mph S6.4 kmh S 8.1 mph13.0 kmh 30.14 in1020.7 mb 0.00 in0.0 mm 0.00 in0.0 mm 0.00 in0.0 mm
11:34 AM 54.0°F12.2°C 31.5°F-0.3°C 42% 4.0 mph SW6.4 kmh SW 10.1 mph16.3 kmh 30.13 in1020.3 mb 0.00 in0.0 mm 0.00 in0.0 mm 0.00 in0.0 mm
11:39 AM 54.5°F12.5°C 30.7°F-0.7°C 40% 4.0 mph SSW6.4 kmh SSW 11.0 mph17.7 kmh 30.13 in1020.3 mb 0.00 in0.0 mm 0.00 in0.0 mm 0.00 in0.0 mm
11:44 AM 54.3°F12.4°C 30.6°F-0.8°C 40% 4.9 mph WSW7.9 kmh WSW 8.9 mph14.3 kmh 30.13 in1020.3 mb 0.00 in0.0 mm 0.00 in0.0 mm 0.00 in0.0 mm
11:49 AM 54.9°F12.7°C 31.6°F-0.2°C 41% 4.9 mph SW7.9 kmh SW 12.1 mph19.5 kmh 30.13 in1020.3 mb 0.00 in0.0 mm 0.00 in0.0 mm 0.00 in0.0 mm
11:54 AM 55.0°F12.8°C 30.6°F-0.8°C 39% 4.0 mph S6.4 kmh S 10.1 mph16.3 kmh 30.13 in1020.3 mb 0.00 in0.0 mm 0.00 in0.0 mm 0.00 in0.0 mm
11:59 AM 55.6°F13.1°C 31.6°F-0.2°C 40% 4.0 mph SSW6.4 kmh SSW 10.1 mph16.3 kmh 30.13 in1020.3 mb 0.00 in0.0 mm 0.00 in0.0 mm 0.00 in0.0 mm
12:04 PM 55.6°F13.1°C 30.4°F-0.9°C 38% 4.0 mph SSW6.4 kmh SSW 12.1 mph19.5 kmh 30.12 in1020.0 mb 0.00 in0.0 mm 0.00 in0.0 mm 0.00 in0.0 mm
12:09 PM 55.4°F13.0°C 30.2°F-1.0°C 38% 4.9 mph WSW7.9 kmh WSW 12.1 mph19.5 kmh 30.12 in1020.0 mb 0.00 in0.0 mm 0.00 in0.0 mm 0.00 in0.0 mm
12:14 PM 55.6°F13.1°C 30.4°F-0.9°C 38% 4.9 mph SSW7.9 kmh SSW 11.0 mph17.7 kmh 30.12 in1020.0 mb 0.00 in0.0 mm 0.00 in0.0 mm 0.00 in0.0 mm
12:19 PM 56.1°F13.4°C 30.9°F-0.6°C 38% 4.9 mph SSE7.9 kmh SSE 8.9 mph14.3 kmh 30.11 in1019.6 mb 0.00 in0.0 mm 0.00 in0.0 mm 0.00 in0.0 mm
12:24 PM 56.1°F13.4°C 30.2°F-1.0°C 37% 4.9 mph SSW7.9 kmh SSW 13.0 mph20.9 kmh 30.11 in1019.6 mb 0.00 in0.0 mm 0.00 in0.0 mm 0.00 in0.0 mm
12:29 PM 55.9°F13.3°C 30.7°F-0.7°C 38% 6.0 mph S9.7 kmh S 12.1 mph19.5 kmh 30.11 in1019.6 mb 0.00 in0.0 mm 0.00 in0.0 mm 0.00 in0.0 mm
12:34 PM 56.1°F13.4°C 30.9°F-0.6°C 38% 4.9 mph SW7.9 kmh SW 10.1 mph16.3 kmh 30.11 in1019.6 mb 0.00 in0.0 mm 0.00 in0.0 mm 0.00 in0.0 mm
12:39 PM 56.3°F13.5°C 30.4°F-0.9°C 37% 4.9 mph SW7.9 kmh SW 11.0 mph17.7 kmh 30.11 in1019.6 mb 0.00 in0.0 mm 0.00 in0.0 mm 0.00 in0.0 mm
12:44 PM 55.8°F13.2°C 30.6°F-0.8°C 38% 4.9 mph SSW7.9 kmh SSW 12.1 mph19.5 kmh 30.11 in1019.6 mb 0.00 in0.0 mm 0.00 in0.0 mm 0.00 in0.0 mm
12:49 PM 56.7°F13.7°C 31.3°F-0.4°C 38% 4.0 mph SW6.4 kmh SW 8.1 mph13.0 kmh 30.11 in1019.6 mb 0.00 in0.0 mm 0.00 in0.0 mm 0.00 in0.0 mm
12:54 PM 57.0°F13.9°C 30.4°F-0.9°C 36% 4.0 mph S6.4 kmh S 15.0 mph24.1 kmh 30.11 in1019.6 mb 0.00 in0.0 mm 0.00 in0.0 mm 0.00 in0.0 mm
12:59 PM 57.2°F14.0°C 31.1°F-0.5°C 37% 4.9 mph S7.9 kmh S 8.9 mph14.3 kmh 30.10 in1019.3 mb 0.00 in0.0 mm 0.00 in0.0 mm 0.00 in0.0 mm
01:04 PM 57.4°F14.1°C 30.6°F-0.8°C 36% 4.9 mph SW7.9 kmh SW 10.1 mph16.3 kmh 30.10 in1019.3 mb 0.00 in0.0 mm 0.00 in0.0 mm 0.00 in0.0 mm
01:09 PM 57.7°F14.3°C 31.6°F-0.2°C 37% 4.0 mph SSW6.4 kmh SSW 8.1 mph13.0 kmh 30.09 in1019.0 mb 0.00 in0.0 mm 0.00 in0.0 mm 0.00 in0.0 mm
01:14 PM 57.9°F14.4°C 29.7°F-1.3°C 34% 4.0 mph SW6.4 kmh SW 11.0 mph17.7 kmh 30.10 in1019.3 mb 0.00 in0.0 mm 0.00 in0.0 mm 0.00 in0.0 mm
01:19 PM 57.6°F14.2°C 29.5°F-1.4°C 34% 4.9 mph NW7.9 kmh NW 10.1 mph16.3 kmh 30.09 in1019.0 mb 0.00 in0.0 mm 0.00 in0.0 mm 0.00 in0.0 mm
01:24 PM 57.6°F14.2°C 30.0°F-1.1°C 35% 4.9 mph W7.9 kmh W 12.1 mph19.5 kmh 30.09 in1019.0 mb 0.00 in0.0 mm 0.00 in0.0 mm 0.00 in0.0 mm
01:29 PM 57.6°F14.2°C 29.5°F-1.4°C 34% 4.9 mph SW7.9 kmh SW 10.1 mph16.3 kmh 30.08 in1018.6 mb 0.00 in0.0 mm 0.00 in0.0 mm 0.00 in0.0 mm
01:34 PM 57.9°F14.4°C 30.4°F-0.9°C 35% 4.0 mph WSW6.4 kmh WSW 8.9 mph14.3 kmh 30.08 in1018.6 mb 0.00 in0.0 mm 0.00 in0.0 mm 0.00 in0.0 mm
01:39 PM 58.3°F14.6°C 30.0°F-1.1°C 34% 2.9 mph W4.7 kmh W 8.1 mph13.0 kmh 30.08 in1018.6 mb 0.00 in0.0 mm 0.00 in0.0 mm 0.00 in0.0 mm
01:44 PM 58.5°F14.7°C 30.2°F-1.0°C 34% 4.0 mph SW6.4 kmh SW 12.1 mph19.5 kmh 30.08 in1018.6 mb 0.00 in0.0 mm 0.00 in0.0 mm 0.00 in0.0 mm
01:49 PM 58.5°F14.7°C 28.8°F-1.8°C 32% 4.0 mph S6.4 kmh S 8.9 mph14.3 kmh 30.07 in1018.3 mb 0.00 in0.0 mm 0.00 in0.0 mm 0.00 in0.0 mm
01:54 PM 57.9°F14.4°C 29.7°F-1.3°C 34% 2.9 mph SW4.7 kmh SW 8.1 mph13.0 kmh 30.07 in1018.3 mb 0.00 in0.0 mm 0.00 in0.0 mm 0.00 in0.0 mm
01:59 PM 57.9°F14.4°C 28.2°F-2.1°C 32% 4.0 mph S6.4 kmh S 13.0 mph20.9 kmh 30.07 in1018.3 mb 0.00 in0.0 mm 0.00 in0.0 mm 0.00 in0.0 mm
02:04 PM 58.3°F14.6°C 26.2°F-3.2°C 29% 4.9 mph SW7.9 kmh SW 11.0 mph17.7 kmh 30.06 in1017.9 mb 0.00 in0.0 mm 0.00 in0.0 mm 0.00 in0.0 mm
02:09 PM 58.3°F14.6°C 27.9°F-2.3°C 31% 4.9 mph WSW7.9 kmh WSW 8.9 mph14.3 kmh 30.06 in1017.9 mb 0.00 in0.0 mm 0.00 in0.0 mm 0.00 in0.0 mm
02:14 PM 58.3°F14.6°C 29.3°F-1.5°C 33% 4.0 mph SE6.4 kmh SE 8.9 mph14.3 kmh 30.06 in1017.9 mb 0.00 in0.0 mm 0.00 in0.0 mm 0.00 in0.0 mm
02:19 PM 58.5°F14.7°C 27.9°F-2.3°C 31% 4.9 mph W7.9 kmh W 11.0 mph17.7 kmh 30.06 in1017.9 mb 0.00 in0.0 mm 0.00 in0.0 mm 0.00 in0.0 mm
02:24 PM 58.3°F14.6°C 28.6°F-1.9°C 32% 4.0 mph SSW6.4 kmh SSW 8.9 mph14.3 kmh 30.06 in1017.9 mb 0.00 in0.0 mm 0.00 in0.0 mm 0.00 in0.0 mm
02:29 PM 58.5°F14.7°C 27.9°F-2.3°C 31% 4.0 mph W6.4 kmh W 10.1 mph16.3 kmh 30.06 in1017.9 mb 0.00 in0.0 mm 0.00 in0.0 mm 0.00 in0.0 mm
02:34 PM 58.6°F14.8°C 27.3°F-2.6°C 30% 4.0 mph SSW6.4 kmh SSW 8.1 mph13.0 kmh 30.06 in1017.9 mb 0.00 in0.0 mm 0.00 in0.0 mm 0.00 in0.0 mm
02:39 PM 58.6°F14.8°C 27.3°F-2.6°C 30% 4.0 mph S6.4 kmh S 11.0 mph17.7 kmh 30.06 in1017.9 mb 0.00 in0.0 mm 0.00 in0.0 mm 0.00 in0.0 mm
02:44 PM 58.8°F14.9°C 26.6°F-3.0°C 29% 4.9 mph WSW7.9 kmh WSW 10.1 mph16.3 kmh 30.05 in1017.6 mb 0.00 in0.0 mm 0.00 in0.0 mm 0.00 in0.0 mm
02:49 PM 58.6°F14.8°C 26.4°F-3.1°C 29% 4.9 mph WSW7.9 kmh WSW 10.1 mph16.3 kmh 30.05 in1017.6 mb 0.00 in0.0 mm 0.00 in0.0 mm 0.00 in0.0 mm
02:54 PM 58.6°F14.8°C 27.3°F-2.6°C 30% 4.9 mph SSW7.9 kmh SSW 14.1 mph22.7 kmh 30.05 in1017.6 mb 0.00 in0.0 mm 0.00 in0.0 mm 0.00 in0.0 mm
02:59 PM 58.5°F14.7°C 27.9°F-2.3°C 31% 4.9 mph S7.9 kmh S 11.0 mph17.7 kmh 30.05 in1017.6 mb 0.00 in0.0 mm 0.00 in0.0 mm 0.00 in0.0 mm
03:04 PM 58.5°F14.7°C 27.1°F-2.7°C 30% 4.9 mph S7.9 kmh S 10.1 mph16.3 kmh 30.04 in1017.3 mb 0.00 in0.0 mm 0.00 in0.0 mm 0.00 in0.0 mm
03:09 PM 58.6°F14.8°C 28.0°F-2.2°C 31% 4.0 mph SW6.4 kmh SW 11.0 mph17.7 kmh 30.05 in1017.6 mb 0.00 in0.0 mm 0.00 in0.0 mm 0.00 in0.0 mm
03:14 PM 58.5°F14.7°C 27.1°F-2.7°C 30% 4.0 mph SW6.4 kmh SW 10.1 mph16.3 kmh 30.05 in1017.6 mb 0.00 in0.0 mm 0.00 in0.0 mm 0.00 in0.0 mm
03:19 PM 58.6°F14.8°C 27.3°F-2.6°C 30% 4.0 mph SSW6.4 kmh SSW 6.9 mph11.1 kmh 30.04 in1017.3 mb 0.00 in0.0 mm 0.00 in0.0 mm 0.00 in0.0 mm
03:24 PM 58.6°F14.8°C 26.4°F-3.1°C 29% 4.0 mph WSW6.4 kmh WSW 8.1 mph13.0 kmh 30.04 in1017.3 mb 0.00 in0.0 mm 0.00 in0.0 mm 0.00 in0.0 mm
03:29 PM 58.1°F14.5°C 26.1°F-3.3°C 29% 4.0 mph SW6.4 kmh SW 12.1 mph19.5 kmh 30.05 in1017.6 mb 0.00 in0.0 mm 0.00 in0.0 mm 0.00 in0.0 mm
03:34 PM 58.3°F14.6°C 27.0°F-2.8°C 30% 4.0 mph SW6.4 kmh SW 6.0 mph9.7 kmh 30.04 in1017.3 mb 0.00 in0.0 mm 0.00 in0.0 mm 0.00 in0.0 mm
03:39 PM 58.3°F14.6°C 27.0°F-2.8°C 30% 2.9 mph S4.7 kmh S 11.0 mph17.7 kmh 30.04 in1017.3 mb 0.00 in0.0 mm 0.00 in0.0 mm 0.00 in0.0 mm
03:44 PM 58.5°F14.7°C 28.8°F-1.8°C 32% 4.0 mph SW6.4 kmh SW 10.1 mph16.3 kmh 30.04 in1017.3 mb 0.00 in0.0 mm 0.00 in0.0 mm 0.00 in0.0 mm
03:49 PM 58.6°F14.8°C 27.3°F-2.6°C 30% 2.9 mph SSW4.7 kmh SSW 6.9 mph11.1 kmh 30.04 in1017.3 mb 0.00 in0.0 mm 0.00 in0.0 mm 0.00 in0.0 mm
03:54 PM 58.5°F14.7°C 27.1°F-2.7°C 30% 4.0 mph SW6.4 kmh SW 9.0 mph14.5 kmh 30.03 in1016.9 mb 0.00 in0.0 mm 0.00 in0.0 mm 0.00 in0.0 mm
03:59 PM 58.8°F14.9°C 26.6°F-3.0°C 29% 4.0 mph W6.4 kmh W 8.1 mph13.0 kmh 30.03 in1016.9 mb 0.00 in0.0 mm 0.00 in0.0 mm 0.00 in0.0 mm
04:04 PM 58.6°F14.8°C 27.3°F-2.6°C 30% 4.0 mph SW6.4 kmh SW 10.1 mph16.3 kmh 30.03 in1016.9 mb 0.00 in0.0 mm 0.00 in0.0 mm 0.00 in0.0 mm
04:09 PM 58.3°F14.6°C 27.0°F-2.8°C 30% 4.0 mph S6.4 kmh S 8.1 mph13.0 kmh 30.03 in1016.9 mb 0.00 in0.0 mm 0.00 in0.0 mm 0.00 in0.0 mm
04:14 PM 58.3°F14.6°C 27.0°F-2.8°C 30% 2.9 mph W4.7 kmh W 6.9 mph11.1 kmh 30.03 in1016.9 mb 0.00 in0.0 mm 0.00 in0.0 mm 0.00 in0.0 mm
04:19 PM 58.3°F14.6°C 28.6°F-1.9°C 32% 2.9 mph SW4.7 kmh SW 6.9 mph11.1 kmh 30.03 in1016.9 mb 0.00 in0.0 mm 0.00 in0.0 mm 0.00 in0.0 mm
04:24 PM 58.5°F14.7°C 27.9°F-2.3°C 31% 2.9 mph SW4.7 kmh SW 4.9 mph7.9 kmh 30.03 in1016.9 mb 0.00 in0.0 mm 0.00 in0.0 mm 0.00 in0.0 mm
04:29 PM 58.3°F14.6°C 28.6°F-1.9°C 32% 2.9 mph SW4.7 kmh SW 7.0 mph11.3 kmh 30.03 in1016.9 mb 0.00 in0.0 mm 0.00 in0.0 mm 0.00 in0.0 mm
04:34 PM 58.5°F14.7°C 27.9°F-2.3°C 31% 2.9 mph SSW4.7 kmh SSW 6.0 mph9.7 kmh 30.03 in1016.9 mb 0.00 in0.0 mm 0.00 in0.0 mm 0.00 in0.0 mm
04:39 PM 58.8°F14.9°C 27.5°F-2.5°C 30% 4.0 mph SW6.4 kmh SW 9.0 mph14.5 kmh 30.03 in1016.9 mb 0.00 in0.0 mm 0.00 in0.0 mm 0.00 in0.0 mm
04:44 PM 58.8°F14.9°C 27.5°F-2.5°C 30% 4.0 mph WSW6.4 kmh WSW 8.1 mph13.0 kmh 30.03 in1016.9 mb 0.00 in0.0 mm 0.00 in0.0 mm 0.00 in0.0 mm
04:49 PM 58.6°F14.8°C 27.3°F-2.6°C 30% 2.9 mph SSW4.7 kmh SSW 6.9 mph11.1 kmh 30.03 in1016.9 mb 0.00 in0.0 mm 0.00 in0.0 mm 0.00 in0.0 mm
04:54 PM 58.1°F14.5°C 26.8°F-2.9°C 30% 2.9 mph S4.7 kmh S 6.9 mph11.1 kmh 30.03 in1016.9 mb 0.00 in0.0 mm 0.00 in0.0 mm 0.00 in0.0 mm
04:59 PM 57.7°F14.3°C 27.3°F-2.6°C 31% 2.9 mph SW4.7 kmh SW 10.1 mph16.3 kmh 30.03 in1016.9 mb 0.00 in0.0 mm 0.00 in0.0 mm 0.00 in0.0 mm
05:04 PM 57.4°F14.1°C 27.7°F-2.4°C 32% 2.9 mph SSW4.7 kmh SSW 11.0 mph17.7 kmh 30.03 in1016.9 mb 0.00 in0.0 mm 0.00 in0.0 mm 0.00 in0.0 mm
05:09 PM 57.4°F14.1°C 27.7°F-2.4°C 32% 2.9 mph SW4.7 kmh SW 6.0 mph9.7 kmh 30.03 in1016.9 mb 0.00 in0.0 mm 0.00 in0.0 mm 0.00 in0.0 mm
05:14 PM 57.7°F14.3°C 28.0°F-2.2°C 32% 2.0 mph SW3.2 kmh SW 7.0 mph11.3 kmh 30.03 in1016.9 mb 0.00 in0.0 mm 0.00 in0.0 mm 0.00 in0.0 mm
05:19 PM 57.9°F14.4°C 28.2°F-2.1°C 32% 2.9 mph SW4.7 kmh SW 10.1 mph16.3 kmh 30.03 in1016.9 mb 0.00 in0.0 mm 0.00 in0.0 mm 0.00 in0.0 mm
05:24 PM 57.6°F14.2°C 28.6°F-1.9°C 33% 4.0 mph SSE6.4 kmh SSE 6.9 mph11.1 kmh 30.03 in1016.9 mb 0.00 in0.0 mm 0.00 in0.0 mm 0.00 in0.0 mm
05:29 PM 57.4°F14.1°C 28.6°F-1.9°C 33% 2.9 mph WSW4.7 kmh WSW 6.0 mph9.7 kmh 30.03 in1016.9 mb 0.00 in0.0 mm 0.00 in0.0 mm 0.00 in0.0 mm
05:34 PM 57.2°F14.0°C 28.4°F-2.0°C 33% 2.9 mph SW4.7 kmh SW 9.0 mph14.5 kmh 30.03 in1016.9 mb 0.00 in0.0 mm 0.00 in0.0 mm 0.00 in0.0 mm
05:39 PM 57.0°F13.9°C 28.9°F-1.7°C 34% 2.9 mph S4.7 kmh S 4.0 mph6.4 kmh 30.03 in1016.9 mb 0.00 in0.0 mm 0.00 in0.0 mm 0.00 in0.0 mm
05:44 PM 56.8°F13.8°C 29.5°F-1.4°C 35% 2.0 mph SW3.2 kmh SW 6.0 mph9.7 kmh 30.03 in1016.9 mb 0.00 in0.0 mm 0.00 in0.0 mm 0.00 in0.0 mm
05:49 PM 56.8°F13.8°C 28.8°F-1.8°C 34% 2.9 mph SSE4.7 kmh SSE 9.0 mph14.5 kmh 30.03 in1016.9 mb 0.00 in0.0 mm 0.00 in0.0 mm 0.00 in0.0 mm
05:54 PM 56.7°F13.7°C 28.6°F-1.9°C 34% 2.9 mph SSW4.7 kmh SSW 8.1 mph13.0 kmh 30.03 in1016.9 mb 0.00 in0.0 mm 0.00 in0.0 mm 0.00 in0.0 mm
05:59 PM 56.3°F13.5°C 28.9°F-1.7°C 35% 2.9 mph SE4.7 kmh SE 4.9 mph7.9 kmh 30.03 in1016.9 mb 0.00 in0.0 mm 0.00 in0.0 mm 0.00 in0.0 mm
06:04 PM 55.9°F13.3°C 28.8°F-1.8°C 35% 2.9 mph SW4.7 kmh SW 11.0 mph17.7 kmh 30.03 in1016.9 mb 0.00 in0.0 mm 0.00 in0.0 mm 0.00 in0.0 mm
06:09 PM 55.8°F13.2°C 29.1°F-1.6°C 36% 4.0 mph SSW6.4 kmh SSW 4.9 mph7.9 kmh 30.03 in1016.9 mb 0.00 in0.0 mm 0.00 in0.0 mm 0.00 in0.0 mm
06:19 PM 55.0°F12.8°C 28.6°F-1.9°C 36% 2.9 mph S4.7 kmh S 8.1 mph13.0 kmh 30.02 in1016.6 mb 0.00 in0.0 mm 0.00 in0.0 mm 0.00 in0.0 mm
06:24 PM 54.9°F12.7°C 28.4°F-2.0°C 36% 2.9 mph S4.7 kmh S 6.0 mph9.7 kmh 30.03 in1016.9 mb 0.00 in0.0 mm 0.00 in0.0 mm 0.00 in0.0 mm
06:29 PM 54.5°F12.5°C 28.8°F-1.8°C 37% 2.0 mph S3.2 kmh S 7.0 mph11.3 kmh 30.03 in1016.9 mb 0.00 in0.0 mm 0.00 in0.0 mm 0.00 in0.0 mm
06:34 PM 54.3°F12.4°C 28.6°F-1.9°C 37% 2.9 mph SW4.7 kmh SW 6.9 mph11.1 kmh 30.03 in1016.9 mb 0.00 in0.0 mm 0.00 in0.0 mm 0.00 in0.0 mm
06:39 PM 54.1°F12.3°C 28.4°F-2.0°C 37% 2.0 mph SSW3.2 kmh SSW 4.9 mph7.9 kmh 30.03 in1016.9 mb 0.00 in0.0 mm 0.00 in0.0 mm 0.00 in0.0 mm
06:44 PM 54.0°F12.2°C 28.2°F-2.1°C 37% 2.0 mph SSW3.2 kmh SSW 9.0 mph14.5 kmh 30.03 in1016.9 mb 0.00 in0.0 mm 0.00 in0.0 mm 0.00 in0.0 mm
06:49 PM 53.8°F12.1°C 28.8°F-1.8°C 38% 2.0 mph SSW3.2 kmh SSW 4.9 mph7.9 kmh 30.03 in1016.9 mb 0.00 in0.0 mm 0.00 in0.0 mm 0.00 in0.0 mm
06:54 PM 53.4°F11.9°C 28.4°F-2.0°C 38% 2.0 mph SE3.2 kmh SE 2.9 mph4.7 kmh 30.03 in1016.9 mb 0.00 in0.0 mm 0.00 in0.0 mm 0.00 in0.0 mm
06:59 PM 53.2°F11.8°C 28.2°F-2.1°C 38% 2.0 mph SW3.2 kmh SW 4.9 mph7.9 kmh 30.03 in1016.9 mb 0.00 in0.0 mm 0.00 in0.0 mm 0.00 in0.0 mm
07:04 PM 53.2°F11.8°C 28.2°F-2.1°C 38% 2.0 mph S3.2 kmh S 6.0 mph9.7 kmh 30.03 in1016.9 mb 0.00 in0.0 mm 0.00 in0.0 mm 0.00 in0.0 mm
07:09 PM 53.1°F11.7°C 28.8°F-1.8°C 39% 2.9 mph S4.7 kmh S 7.0 mph11.3 kmh 30.03 in1016.9 mb 0.00 in0.0 mm 0.00 in0.0 mm 0.00 in0.0 mm
07:14 PM 52.9°F11.6°C 28.6°F-1.9°C 39% 2.9 mph SW4.7 kmh SW 4.9 mph7.9 kmh 30.03 in1016.9 mb 0.00 in0.0 mm 0.00 in0.0 mm 0.00 in0.0 mm
07:19 PM 52.5°F11.4°C 28.9°F-1.7°C 40% 2.9 mph SSW4.7 kmh SSW 6.0 mph9.7 kmh 30.03 in1016.9 mb 0.00 in0.0 mm 0.00 in0.0 mm 0.00 in0.0 mm
07:24 PM 52.5°F11.4°C 28.9°F-1.7°C 40% 2.9 mph SW4.7 kmh SW 6.0 mph9.7 kmh 30.03 in1016.9 mb 0.00 in0.0 mm 0.00 in0.0 mm 0.00 in0.0 mm
07:29 PM 52.3°F11.3°C 29.3°F-1.5°C 41% 2.9 mph S4.7 kmh S 4.9 mph7.9 kmh 30.03 in1016.9 mb 0.00 in0.0 mm 0.00 in0.0 mm 0.00 in0.0 mm
07:34 PM 52.2°F11.2°C 29.1°F-1.6°C 41% 2.9 mph SSW4.7 kmh SSW 6.0 mph9.7 kmh 30.03 in1016.9 mb 0.00 in0.0 mm 0.00 in0.0 mm 0.00 in0.0 mm
07:39 PM 52.0°F11.1°C 29.7°F-1.3°C 42% 2.0 mph S3.2 kmh S 4.0 mph6.4 kmh 30.03 in1016.9 mb 0.00 in0.0 mm 0.00 in0.0 mm 0.00 in0.0 mm
07:44 PM 52.0°F11.1°C 29.7°F-1.3°C 42% 2.0 mph SSE3.2 kmh SSE 6.0 mph9.7 kmh 30.03 in1016.9 mb 0.00 in0.0 mm 0.00 in0.0 mm 0.00 in0.0 mm
07:49 PM 51.8°F11.0°C 29.5°F-1.4°C 42% 2.9 mph SSW4.7 kmh SSW 6.0 mph9.7 kmh 30.03 in1016.9 mb 0.00 in0.0 mm 0.00 in0.0 mm 0.00 in0.0 mm
07:54 PM 51.6°F10.9°C 29.8°F-1.2°C 43% 2.9 mph S4.7 kmh S 6.0 mph9.7 kmh 30.04 in1017.3 mb 0.00 in0.0 mm 0.00 in0.0 mm 0.00 in0.0 mm
07:59 PM 51.4°F10.8°C 29.1°F-1.6°C 42% 2.0 mph SSW3.2 kmh SSW 7.0 mph11.3 kmh 30.04 in1017.3 mb 0.00 in0.0 mm 0.00 in0.0 mm 0.00 in0.0 mm
08:04 PM 51.3°F10.7°C 29.5°F-1.4°C 43% 2.0 mph SSW3.2 kmh SSW 4.9 mph7.9 kmh 30.04 in1017.3 mb 0.00 in0.0 mm 0.00 in0.0 mm 0.00 in0.0 mm
08:09 PM 51.1°F10.6°C 29.8°F-1.2°C 44% 2.0 mph SW3.2 kmh SW 4.0 mph6.4 kmh 30.04 in1017.3 mb 0.00 in0.0 mm 0.00 in0.0 mm 0.00 in0.0 mm
08:14 PM 50.7°F10.4°C 29.7°F-1.3°C 44% 2.0 mph SSW3.2 kmh SSW 6.0 mph9.7 kmh 30.05 in1017.6 mb 0.00 in0.0 mm 0.00 in0.0 mm 0.00 in0.0 mm
08:19 PM 50.5°F10.3°C 29.5°F-1.4°C 44% 2.0 mph S3.2 kmh S 2.9 mph4.7 kmh 30.05 in1017.6 mb 0.00 in0.0 mm 0.00 in0.0 mm 0.00 in0.0 mm
08:24 PM 50.4°F10.2°C 29.8°F-1.2°C 45% 2.0 mph SSW3.2 kmh SSW 6.0 mph9.7 kmh 30.05 in1017.6 mb 0.00 in0.0 mm 0.00 in0.0 mm 0.00 in0.0 mm
08:29 PM 50.4°F10.2°C 30.4°F-0.9°C 46% 2.0 mph SW3.2 kmh SW 4.9 mph7.9 kmh 30.05 in1017.6 mb 0.00 in0.0 mm 0.00 in0.0 mm 0.00 in0.0 mm
08:34 PM 50.2°F10.1°C 30.7°F-0.7°C 47% 0.9 mph SSE1.4 kmh SSE 2.9 mph4.7 kmh 30.05 in1017.6 mb 0.00 in0.0 mm 0.00 in0.0 mm 0.00 in0.0 mm
08:39 PM 49.8°F9.9°C 30.4°F-0.9°C 47% 0.9 mph W1.4 kmh W 2.9 mph4.7 kmh 30.05 in1017.6 mb 0.00 in0.0 mm 0.00 in0.0 mm 0.00 in0.0 mm
08:44 PM 49.6°F9.8°C 30.7°F-0.7°C 48% 0.9 mph SSW1.4 kmh SSW 2.0 mph3.2 kmh 30.05 in1017.6 mb 0.00 in0.0 mm 0.00 in0.0 mm 0.00 in0.0 mm
08:49 PM 49.5°F9.7°C 30.6°F-0.8°C 48% 0.9 mph SW1.4 kmh SW 4.0 mph6.4 kmh 30.05 in1017.6 mb 0.00 in0.0 mm 0.00 in0.0 mm 0.00 in0.0 mm
08:54 PM 49.3°F9.6°C 30.4°F-0.9°C 48% 0.9 mph SW1.4 kmh SW 2.9 mph4.7 kmh 30.05 in1017.6 mb 0.00 in0.0 mm 0.00 in0.0 mm 0.00 in0.0 mm
08:59 PM 49.1°F9.5°C 30.7°F-0.7°C 49% Calm Calm 0.9 mph1.4 kmh 30.05 in1017.6 mb 0.00 in0.0 mm 0.00 in0.0 mm 0.00 in0.0 mm
09:04 PM 48.9°F9.4°C 30.6°F-0.8°C 49% Calm Calm 3.0 mph4.8 kmh 30.06 in1017.9 mb 0.00 in0.0 mm 0.00 in0.0 mm 0.00 in0.0 mm
09:09 PM 48.7°F9.3°C 30.4°F-0.9°C 49% Calm Calm -- 30.06 in1017.9 mb 0.00 in0.0 mm 0.00 in0.0 mm 0.00 in0.0 mm
09:14 PM 48.6°F9.2°C 30.7°F-0.7°C 50% Calm Calm 0.9 mph1.4 kmh 30.06 in1017.9 mb 0.00 in0.0 mm 0.00 in0.0 mm 0.00 in0.0 mm
09:19 PM 48.4°F9.1°C 31.1°F-0.5°C 51% Calm Calm 2.0 mph3.2 kmh 30.06 in1017.9 mb 0.00 in0.0 mm 0.00 in0.0 mm 0.00 in0.0 mm
09:24 PM 48.0°F8.9°C 30.7°F-0.7°C 51% 0.9 mph N1.4 kmh N 2.0 mph3.2 kmh 30.06 in1017.9 mb 0.00 in0.0 mm 0.00 in0.0 mm 0.00 in0.0 mm
09:29 PM 47.8°F8.8°C 32.5°F0.3°C 55% Calm Calm 2.0 mph3.2 kmh 30.07 in1018.3 mb 0.00 in0.0 mm 0.00 in0.0 mm 0.00 in0.0 mm
09:34 PM 47.1°F8.4°C 34.0°F1.1°C 60% Calm Calm 2.0 mph3.2 kmh 30.07 in1018.3 mb 0.00 in0.0 mm 0.00 in0.0 mm 0.00 in0.0 mm
09:39 PM 46.6°F8.1°C 35.1°F1.7°C 64% 0.9 mph N1.4 kmh N 2.0 mph3.2 kmh 30.07 in1018.3 mb 0.00 in0.0 mm 0.00 in0.0 mm 0.00 in0.0 mm
09:44 PM 45.9°F7.7°C 35.1°F1.7°C 66% 0.9 mph NNE1.4 kmh NNE 4.0 mph6.4 kmh 30.07 in1018.3 mb 0.00 in0.0 mm 0.00 in0.0 mm 0.00 in0.0 mm
09:49 PM 45.3°F7.4°C 35.4°F1.9°C 68% 0.9 mph N1.4 kmh N 4.0 mph6.4 kmh 30.07 in1018.3 mb 0.00 in0.0 mm 0.00 in0.0 mm 0.00 in0.0 mm
09:54 PM 45.0°F7.2°C 35.4°F1.9°C 69% 0.9 mph N1.4 kmh N 0.9 mph1.4 kmh 30.07 in1018.3 mb 0.00 in0.0 mm 0.00 in0.0 mm 0.00 in0.0 mm
09:59 PM 44.8°F7.1°C 35.6°F2.0°C 70% Calm Calm 0.9 mph1.4 kmh 30.07 in1018.3 mb 0.00 in0.0 mm 0.00 in0.0 mm 0.00 in0.0 mm
10:04 PM 44.4°F6.9°C 35.6°F2.0°C 71% Calm Calm 2.0 mph3.2 kmh 30.07 in1018.3 mb 0.00 in0.0 mm 0.00 in0.0 mm 0.00 in0.0 mm
10:09 PM 44.2°F6.8°C 35.4°F1.9°C 71% Calm Calm 2.0 mph3.2 kmh 30.06 in1017.9 mb 0.00 in0.0 mm 0.00 in0.0 mm 0.00 in0.0 mm
10:14 PM 44.1°F6.7°C 35.6°F2.0°C 72% Calm Calm 2.0 mph3.2 kmh 30.06 in1017.9 mb 0.00 in0.0 mm 0.00 in0.0 mm 0.00 in0.0 mm
10:19 PM 43.9°F6.6°C 35.4°F1.9°C 72% Calm Calm -- 30.06 in1017.9 mb 0.00 in0.0 mm 0.00 in0.0 mm 0.00 in0.0 mm
10:24 PM 43.7°F6.5°C 35.6°F2.0°C 73% Calm Calm -- 30.06 in1017.9 mb 0.00 in0.0 mm 0.00 in0.0 mm 0.00 in0.0 mm
10:29 PM 43.5°F6.4°C 35.4°F1.9°C 73% Calm Calm -- 30.06 in1017.9 mb 0.00 in0.0 mm 0.00 in0.0 mm 0.00 in0.0 mm
10:34 PM 43.3°F6.3°C 35.6°F2.0°C 74% Calm Calm -- 30.06 in1017.9 mb 0.00 in0.0 mm 0.00 in0.0 mm 0.00 in0.0 mm
10:39 PM 43.2°F6.2°C 35.4°F1.9°C 74% Calm Calm -- 30.06 in1017.9 mb 0.00 in0.0 mm 0.00 in0.0 mm 0.00 in0.0 mm
10:44 PM 43.2°F6.2°C 35.4°F1.9°C 74% Calm Calm -- 30.06 in1017.9 mb 0.00 in0.0 mm 0.00 in0.0 mm 0.00 in0.0 mm
10:49 PM 43.0°F6.1°C 35.2°F1.8°C 74% Calm Calm -- 30.06 in1017.9 mb 0.00 in0.0 mm 0.00 in0.0 mm 0.00 in0.0 mm
10:54 PM 42.8°F6.0°C 35.1°F1.7°C 74% Calm Calm 2.0 mph3.2 kmh 30.06 in1017.9 mb 0.00 in0.0 mm 0.00 in0.0 mm 0.00 in0.0 mm
10:59 PM 42.6°F5.9°C 34.9°F1.6°C 74% Calm Calm 0.9 mph1.4 kmh 30.06 in1017.9 mb 0.00 in0.0 mm 0.00 in0.0 mm 0.00 in0.0 mm
11:04 PM 42.6°F5.9°C 34.9°F1.6°C 74% Calm Calm 0.9 mph1.4 kmh 30.06 in1017.9 mb 0.00 in0.0 mm 0.00 in0.0 mm 0.00 in0.0 mm
11:09 PM 42.4°F5.8°C 34.7°F1.5°C 74% Calm Calm 0.9 mph1.4 kmh 30.06 in1017.9 mb 0.00 in0.0 mm 0.00 in0.0 mm 0.00 in0.0 mm
11:14 PM 42.4°F5.8°C 34.7°F1.5°C 74% Calm Calm -- 30.06 in1017.9 mb 0.00 in0.0 mm 0.00 in0.0 mm 0.00 in0.0 mm
11:19 PM 42.3°F5.7°C 34.9°F1.6°C 75% Calm Calm -- 30.06 in1017.9 mb 0.00 in0.0 mm 0.00 in0.0 mm 0.00 in0.0 mm
11:24 PM 42.3°F5.7°C 34.5°F1.4°C 74% Calm Calm -- 30.05 in1017.6 mb 0.00 in0.0 mm 0.00 in0.0 mm 0.00 in0.0 mm
11:29 PM 42.3°F5.7°C 34.5°F1.4°C 74% Calm Calm -- 30.05 in1017.6 mb 0.00 in0.0 mm 0.00 in0.0 mm 0.00 in0.0 mm
11:34 PM 42.3°F5.7°C 34.5°F1.4°C 74% Calm Calm -- 30.05 in1017.6 mb 0.00 in0.0 mm 0.00 in0.0 mm 0.00 in0.0 mm
11:39 PM 42.1°F5.6°C 34.7°F1.5°C 75% Calm Calm 1.0 mph1.6 kmh 30.05 in1017.6 mb 0.00 in0.0 mm 0.00 in0.0 mm 0.00 in0.0 mm
11:44 PM 41.7°F5.4°C 34.3°F1.3°C 75% Calm Calm 0.9 mph1.4 kmh 30.05 in1017.6 mb 0.00 in0.0 mm 0.00 in0.0 mm 0.00 in0.0 mm
11:49 PM 41.5°F5.3°C 34.2°F1.2°C 75% Calm Calm -- 30.05 in1017.6 mb 0.00 in0.0 mm 0.00 in0.0 mm 0.00 in0.0 mm
11:54 PM 41.2°F5.1°C 34.2°F1.2°C 76% Calm Calm -- 30.05 in1017.6 mb 0.00 in0.0 mm 0.00 in0.0 mm 0.00 in0.0 mm
11:59 PM 41.0°F5.0°C 34.0°F1.1°C 76% Calm Calm -- 30.05 in1017.6 mb 0.00 in0.0 mm 0.00 in0.0 mm 0.00 in0.0 mm